createdAt,value
2023-03-17T00:04:38.404Z,99935.09
2023-03-17T00:09:40.838Z,99926.78
2023-03-17T00:14:44.563Z,99920.50
2023-03-17T00:19:46.623Z,99902.66
2023-03-17T00:24:48.504Z,99897.81
2023-03-17T00:29:50.167Z,99884.47
2023-03-17T00:34:53.725Z,99878.88
2023-03-17T00:39:56.329Z,99879.44
2023-03-17T00:45:01.356Z,99875.63
2023-03-17T00:50:05.675Z,99863.47
2023-03-17T00:55:09.152Z,99866.19
2023-03-17T01:00:25.501Z,99859.19
2023-03-17T01:05:27.166Z,99843.44
2023-03-17T01:10:29.686Z,99841.25
2023-03-17T01:15:33.171Z,99825.72
2023-03-17T01:20:35.434Z,99828.72
2023-03-17T01:25:38.607Z,99825.78
2023-03-17T01:30:40.954Z,99819.78
2023-03-17T01:35:43.957Z,99807.38
2023-03-17T01:40:49.734Z,99803.75
2023-03-17T01:46:13.088Z,99797.75
2023-03-17T01:51:31.322Z,99768.41
2023-03-17T01:56:33.577Z,99767.25
2023-03-17T02:01:38.752Z,99766.97
2023-03-17T02:06:54.953Z,99766.47
2023-03-17T02:12:01.547Z,99766.00
2023-03-17T02:17:03.374Z,99758.63
2023-03-17T02:22:05.213Z,99752.88
2023-03-17T02:27:21.677Z,99758.38
2023-03-17T02:32:23.612Z,99750.88
2023-03-17T02:37:26.061Z,99754.91
2023-03-17T02:42:28.677Z,99752.81
2023-03-17T02:47:33.499Z,99751.88
2023-03-17T02:52:35.271Z,99757.88
2023-03-17T02:57:36.915Z,99764.53
2023-03-17T03:02:39.171Z,99756.53
2023-03-17T03:07:40.807Z,99749.81
2023-03-17T03:12:42.741Z,99738.91
2023-03-17T03:17:44.361Z,99749.13
2023-03-17T03:22:46.102Z,99744.63
2023-03-17T03:27:47.777Z,99743.56
2023-03-17T03:32:49.451Z,99750.78
2023-03-17T03:37:51.120Z,99760.66
2023-03-17T03:42:53.117Z,99758.03
2023-03-17T03:47:55.389Z,99746.22
2023-03-17T03:52:57.496Z,99752.25
2023-03-17T03:57:59.163Z,99740.66
2023-03-17T04:03:01.564Z,99737.16
2023-03-17T04:08:03.402Z,99733.22
2023-03-17T04:13:05.622Z,99728.88
2023-03-17T04:18:07.266Z,99732.94
2023-03-17T04:23:08.888Z,99733.28
2023-03-17T04:28:11.876Z,99731.19
2023-03-17T04:33:13.857Z,99741.47
2023-03-17T04:38:15.771Z,99731.84
2023-03-17T04:43:18.226Z,99726.03
2023-03-17T04:48:19.838Z,99714.16
2023-03-17T04:53:22.401Z,99723.03
2023-03-17T04:58:30.826Z,99711.72
2023-03-17T05:03:33.307Z,99705.06
2023-03-17T05:08:34.952Z,99702.53
2023-03-17T05:13:36.921Z,99693.88
2023-03-17T05:18:38.983Z,99689.91
2023-03-17T05:23:41.148Z,99689.53
2023-03-17T05:28:42.810Z,99684.94
2023-03-17T05:33:44.772Z,99701.19
2023-03-17T05:38:46.767Z,99691.00
2023-03-17T05:43:48.408Z,99696.72
2023-03-17T05:48:50.112Z,99695.53
2023-03-17T05:53:51.736Z,99699.50
2023-03-17T05:58:53.352Z,99696.97
2023-03-17T06:03:55.361Z,99711.84
2023-03-17T06:08:57.038Z,99712.44
2023-03-17T06:13:58.648Z,99729.19
2023-03-17T06:19:00.423Z,99713.00
2023-03-17T06:24:02.149Z,99714.28
2023-03-17T06:29:05.037Z,99707.66
2023-03-17T06:34:06.955Z,99721.06
2023-03-17T06:39:09.614Z,99732.13
2023-03-17T06:44:11.249Z,99732.78
2023-03-17T06:49:13.606Z,99744.50
2023-03-17T06:54:15.298Z,99742.50
2023-03-17T06:59:17.016Z,99746.84
2023-03-17T07:04:19.740Z,99758.00
2023-03-17T07:09:22.145Z,99746.75
2023-03-17T07:14:24.344Z,99722.28
2023-03-17T07:19:27.287Z,99733.19
2023-03-17T07:24:28.954Z,99745.91
2023-03-17T07:29:32.456Z,99714.22
2023-03-17T07:34:34.804Z,99702.38
2023-03-17T07:39:36.640Z,99699.75
2023-03-17T07:44:41.564Z,99695.53
2023-03-17T07:49:43.257Z,99698.69
2023-03-17T07:54:45.092Z,99675.09
2023-03-17T07:59:47.508Z,99663.00
2023-03-17T08:04:49.157Z,99679.31
2023-03-17T08:09:51.220Z,99664.59
2023-03-17T08:14:53.196Z,99661.91
2023-03-17T08:19:56.025Z,99645.75
2023-03-17T08:24:58.658Z,99647.09
2023-03-17T08:30:00.439Z,99635.59
2023-03-17T08:35:02.078Z,99627.50
2023-03-17T08:40:05.619Z,99637.00
2023-03-17T08:45:07.819Z,99636.50
2023-03-17T08:50:14.937Z,99633.84
2023-03-17T08:55:16.848Z,99616.88
2023-03-17T09:00:20.514Z,99620.34
2023-03-17T09:05:22.193Z,99615.47
2023-03-17T09:10:24.296Z,99614.94
2023-03-17T09:15:26.696Z,99606.25
2023-03-17T09:20:28.361Z,99601.91
2023-03-17T09:25:30.063Z,99605.22
2023-03-17T09:30:32.878Z,99597.69
2023-03-17T09:35:34.775Z,99596.78
2023-03-17T09:40:49.262Z,99585.06
2023-03-17T09:45:51.626Z,99581.66
2023-03-17T09:51:05.067Z,99583.25
2023-03-17T09:56:16.273Z,99602.22
2023-03-17T10:01:18.585Z,99590.41
2023-03-17T10:06:36.915Z,99594.00
2023-03-17T10:11:44.200Z,99586.41
2023-03-17T10:16:58.126Z,99592.41
2023-03-17T10:22:06.384Z,99583.16
2023-03-17T10:27:12.505Z,99583.50
2023-03-17T10:32:15.152Z,99572.09
2023-03-17T10:37:26.855Z,99567.16
2023-03-17T10:42:32.330Z,99564.06
2023-03-17T10:47:56.502Z,99566.03
2023-03-17T10:53:00.627Z,99572.63
2023-03-17T10:58:13.713Z,99568.63
2023-03-17T11:03:22.863Z,99568.03
2023-03-17T11:08:24.656Z,99562.25
2023-03-17T11:13:30.596Z,99551.44
2023-03-17T11:18:36.687Z,99546.97
2023-03-17T11:23:50.129Z,99554.97
2023-03-17T11:29:04.954Z,99550.47
2023-03-17T11:34:35.873Z,99544.56
2023-03-17T11:39:57.927Z,99545.47
2023-03-17T11:45:09.864Z,99526.53
2023-03-17T11:50:20.918Z,99534.09
2023-03-17T11:55:45.396Z,99519.16
2023-03-17T12:00:54.154Z,99520.88
2023-03-17T12:06:00.694Z,99532.81
2023-03-17T12:11:08.470Z,99521.81
2023-03-17T12:16:33.497Z,99508.38
2023-03-17T12:21:55.660Z,99500.56
2023-03-17T12:27:03.640Z,99488.00
2023-03-17T12:32:12.453Z,99485.22
2023-03-17T12:37:16.062Z,99484.13
2023-03-17T12:42:38.437Z,99477.13
2023-03-17T12:48:01.909Z,99473.41
2023-03-17T12:53:06.603Z,99467.19
2023-03-17T12:58:30.855Z,99477.78
2023-03-17T13:03:34.413Z,99479.81
2023-03-17T13:08:41.184Z,99473.66
2023-03-17T13:13:54.615Z,99464.50
2023-03-17T13:19:17.419Z,99458.69
2023-03-17T13:24:36.166Z,99448.88
2023-03-17T13:29:41.911Z,99443.22
2023-03-17T13:34:50.677Z,99434.94
2023-03-17T13:40:12.236Z,99440.13
2023-03-17T13:45:34.005Z,99419.75
2023-03-17T13:50:40.131Z,99422.63
2023-03-17T13:56:03.207Z,99422.88
2023-03-17T14:01:07.405Z,99416.59
2023-03-17T14:06:12.361Z,99430.78
2023-03-17T14:11:45.361Z,99418.66
2023-03-17T14:16:55.401Z,99427.75
2023-03-17T14:22:18.139Z,99425.97
2023-03-17T14:27:22.577Z,99427.31
2023-03-17T14:32:25.004Z,99415.06
2023-03-17T14:37:28.412Z,99399.94
2023-03-17T14:42:31.573Z,99400.47
2023-03-17T14:47:39.777Z,99396.53
2023-03-17T14:52:41.470Z,99394.53
2023-03-17T14:57:49.291Z,99389.91
2023-03-17T15:02:59.595Z,99389.03
2023-03-17T15:08:01.403Z,99390.59
2023-03-17T15:13:06.383Z,99378.28
2023-03-17T15:18:13.077Z,99378.88
2023-03-17T15:23:18.282Z,99383.97
2023-03-17T15:28:21.058Z,99384.84
2023-03-17T15:33:36.345Z,99383.16
2023-03-17T15:38:39.104Z,99373.59
2023-03-17T15:43:40.833Z,99372.91
2023-03-17T15:48:42.467Z,99374.25
2023-03-17T15:53:44.110Z,99375.50
2023-03-17T15:58:51.595Z,99371.47
2023-03-17T16:03:53.302Z,99366.91
2023-03-17T16:08:54.926Z,99369.00
2023-03-17T16:13:59.992Z,99362.16
2023-03-17T16:19:02.576Z,99363.50
2023-03-17T16:24:04.590Z,99361.13
2023-03-17T16:29:13.425Z,99362.34
2023-03-17T16:34:21.324Z,99357.38
2023-03-17T16:39:23.782Z,99353.59
2023-03-17T16:44:25.976Z,99364.94
2023-03-17T16:49:28.053Z,99357.16
2023-03-17T16:54:33.221Z,99360.03
2023-03-17T16:59:34.993Z,99366.47
2023-03-17T17:04:38.507Z,99369.81
2023-03-17T17:09:40.138Z,99370.91
2023-03-17T17:14:41.795Z,99374.16
2023-03-17T17:19:43.414Z,99369.38
2023-03-17T17:24:45.073Z,99375.00
2023-03-17T17:29:46.689Z,99376.72
2023-03-17T17:34:48.322Z,99372.38
2023-03-17T17:39:51.598Z,99371.03
2023-03-17T17:44:53.472Z,99369.56
2023-03-17T17:49:55.126Z,99369.56
2023-03-17T17:54:57.209Z,99366.50
2023-03-17T17:59:58.836Z,99362.88
2023-03-17T18:05:00.952Z,99371.41
2023-03-17T18:10:03.856Z,99361.03
2023-03-17T18:15:06.149Z,99362.44
2023-03-17T18:20:08.910Z,99359.75
2023-03-17T18:25:12.127Z,99358.25
2023-03-17T18:30:20.448Z,99362.47
2023-03-17T18:35:24.273Z,99357.34
2023-03-17T18:40:26.661Z,99363.41
2023-03-17T18:45:29.048Z,99357.59
2023-03-17T18:50:30.925Z,99353.00
2023-03-17T18:55:32.788Z,99349.34
2023-03-17T19:00:34.401Z,99353.03
2023-03-17T19:05:38.474Z,99346.94
2023-03-17T19:10:42.937Z,99343.50
2023-03-17T19:15:44.554Z,99343.09
2023-03-17T19:20:46.302Z,99352.53
2023-03-17T19:25:48.357Z,99348.19
2023-03-17T19:30:50.004Z,99343.84
2023-03-17T19:35:56.156Z,99360.13
2023-03-17T19:40:57.826Z,99350.94
2023-03-17T19:45:59.716Z,99353.91
2023-03-17T19:51:02.177Z,99346.38
2023-03-17T19:56:04.384Z,99343.84
2023-03-17T20:01:07.558Z,99349.03
2023-03-17T20:06:13.231Z,99347.53
2023-03-17T20:11:15.114Z,99353.13
2023-03-17T20:16:17.333Z,99348.41
2023-03-17T20:21:19.079Z,99357.22
2023-03-17T20:26:20.976Z,99355.75
2023-03-17T20:31:22.850Z,99351.88
2023-03-17T20:36:24.603Z,99359.94
2023-03-17T20:41:26.356Z,99350.16
2023-03-17T20:46:28.024Z,99344.81
2023-03-17T20:51:29.772Z,99351.06
2023-03-17T20:56:33.866Z,99340.38
2023-03-17T21:01:37.518Z,99339.47
2023-03-17T21:06:39.717Z,99336.25
2023-03-17T21:11:41.694Z,99339.00
2023-03-17T21:16:45.048Z,99339.63
2023-03-17T21:21:46.657Z,99342.53
2023-03-17T21:26:48.265Z,99335.50
2023-03-17T21:31:49.925Z,99326.84
2023-03-17T21:36:51.560Z,99337.06
2023-03-17T21:41:54.483Z,99338.31
2023-03-17T21:46:56.966Z,99333.50
2023-03-17T21:51:58.674Z,99331.25
2023-03-17T21:57:00.425Z,99335.09
2023-03-17T22:02:02.942Z,99325.03
2023-03-17T22:07:04.671Z,99333.81
2023-03-17T22:12:07.241Z,99338.53
2023-03-17T22:17:09.174Z,99334.81
2023-03-17T22:22:11.383Z,99344.44
2023-03-17T22:27:14.926Z,99334.91
2023-03-17T22:32:16.558Z,99335.00
2023-03-17T22:37:18.167Z,99339.31
2023-03-17T22:42:19.829Z,99338.94
2023-03-17T22:47:21.445Z,99339.38
2023-03-17T22:52:23.393Z,99335.25
2023-03-17T22:57:25.049Z,99344.00
2023-03-17T23:02:26.802Z,99331.38
2023-03-17T23:07:35.572Z,99344.78
2023-03-17T23:12:43.990Z,99329.28
2023-03-17T23:17:46.253Z,99343.88
2023-03-17T23:22:48.303Z,99337.97
2023-03-17T23:27:50.108Z,99347.72
2023-03-17T23:32:51.829Z,99338.81
2023-03-17T23:37:53.612Z,99343.28
2023-03-17T23:42:55.348Z,99355.59
2023-03-17T23:47:57.590Z,99342.88
2023-03-17T23:52:59.255Z,99350.03
2023-03-17T23:58:01.538Z,99338.78
